createdAt,value
2023-04-28T00:02:08.806Z,16.00
2023-04-28T00:05:47.052Z,16.80
2023-04-28T00:09:42.824Z,17.40
2023-04-28T00:13:26.195Z,15.80
2023-04-28T00:17:10.027Z,16.70
2023-04-28T00:20:54.914Z,19.10
2023-04-28T00:24:38.133Z,21.30
2023-04-28T00:32:10.513Z,19.20
2023-04-28T00:36:00.548Z,19.90
2023-04-28T00:39:26.743Z,17.50
2023-04-28T00:43:21.548Z,17.40
2023-04-28T00:47:04.995Z,17.00
2023-04-28T00:50:48.360Z,17.10
2023-04-28T00:54:34.926Z,16.10
2023-04-28T00:57:59.369Z,14.10
2023-04-28T01:01:55.991Z,17.30
2023-04-28T01:05:39.943Z,18.80
2023-04-28T01:09:05.810Z,18.80
2023-04-28T01:12:42.008Z,19.30
2023-04-28T01:16:19.758Z,19.40
2023-04-28T01:20:16.123Z,19.90
2023-04-28T01:23:40.575Z,18.30
2023-04-28T01:27:18.093Z,17.60
2023-04-28T01:30:56.580Z,16.90
2023-04-28T01:34:52.177Z,16.50
2023-04-28T01:38:16.489Z,16.40
2023-04-28T01:42:13.045Z,16.20
2023-04-28T01:45:37.619Z,17.60
2023-04-28T01:49:34.323Z,18.40
2023-04-28T01:53:20.068Z,21.00
2023-04-28T01:56:44.849Z,20.40
2023-04-28T02:00:50.680Z,19.10
2023-04-28T02:04:34.398Z,19.00
2023-04-28T02:07:58.838Z,21.60
2023-04-28T02:11:55.449Z,19.40
2023-04-28T02:15:19.665Z,17.20
2023-04-28T02:18:57.308Z,14.80
2023-04-28T02:22:54.471Z,14.50
2023-04-28T02:26:18.660Z,15.50
2023-04-28T02:29:56.302Z,16.30
2023-04-28T02:33:53.059Z,16.90
2023-04-28T02:37:36.636Z,16.00
2023-04-28T02:41:20.132Z,16.40
2023-04-28T02:45:03.533Z,18.00
2023-04-28T02:48:27.777Z,23.00
2023-04-28T02:52:24.285Z,16.20
2023-04-28T02:56:07.429Z,15.20
2023-04-28T02:59:50.342Z,12.70
2023-04-28T03:03:15.221Z,12.30
2023-04-28T03:07:11.672Z,11.60
2023-04-28T03:10:55.830Z,11.40
2023-04-28T03:14:25.301Z,12.70
2023-04-28T03:17:57.555Z,12.10
2023-04-28T03:21:35.128Z,11.60
2023-04-28T03:25:12.812Z,8.30
2023-04-28T03:28:50.391Z,10.10
2023-04-28T03:32:28.149Z,9.30
2023-04-28T03:36:06.055Z,8.80
2023-04-28T03:40:02.632Z,8.10
2023-04-28T03:43:27.817Z,8.60
2023-04-28T03:47:22.556Z,7.60
2023-04-28T03:51:19.352Z,7.30
2023-04-28T03:54:43.927Z,6.80
2023-04-28T03:58:40.582Z,6.40
2023-04-28T04:02:04.937Z,6.10
2023-04-28T04:06:01.615Z,5.60
2023-04-28T04:09:44.836Z,7.60
2023-04-28T04:13:09.285Z,6.40
2023-04-28T04:17:05.930Z,5.60
2023-04-28T04:20:49.948Z,4.90
2023-04-28T04:24:14.990Z,4.90
2023-04-28T04:28:11.295Z,5.60
2023-04-28T04:31:54.714Z,5.00
2023-04-28T04:35:19.204Z,5.40
2023-04-28T04:39:16.103Z,6.00
2023-04-28T04:42:40.539Z,4.70
2023-04-28T04:46:36.938Z,5.30
2023-04-28T04:50:01.427Z,5.40
2023-04-28T04:53:38.959Z,5.70
2023-04-28T04:57:35.550Z,6.80
2023-04-28T05:01:37.165Z,7.70
2023-04-28T05:05:22.448Z,7.20
2023-04-28T05:08:59.216Z,8.50
2023-04-28T05:12:54.395Z,7.40
2023-04-28T05:16:38.405Z,7.70
2023-04-28T05:20:32.141Z,7.20
2023-04-28T05:24:16.205Z,6.60
2023-04-28T05:27:41.121Z,6.40
2023-04-28T05:31:18.164Z,6.30
2023-04-28T05:34:56.222Z,8.00
2023-04-28T05:38:52.607Z,8.40
2023-04-28T05:42:36.418Z,9.30
2023-04-28T05:46:01.523Z,11.60
2023-04-28T05:49:57.660Z,6.80
2023-04-28T05:53:41.222Z,6.40
2023-04-28T05:57:24.710Z,6.10
2023-04-28T06:01:07.858Z,10.00
2023-04-28T06:04:51.333Z,6.20
2023-04-28T06:08:35.332Z,7.50
2023-04-28T06:12:20.873Z,9.90
2023-04-28T06:15:45.646Z,7.10
2023-04-28T06:19:22.953Z,8.40
2023-04-28T06:23:19.463Z,9.80
2023-04-28T06:26:46.229Z,9.80
2023-04-28T06:30:24.709Z,10.50
2023-04-28T06:34:20.336Z,11.90
2023-04-28T06:38:03.966Z,8.50
2023-04-28T06:41:29.417Z,8.00
2023-04-28T06:45:25.170Z,6.00
2023-04-28T06:48:49.184Z,6.70
2023-04-28T06:52:38.665Z,7.10
2023-04-28T06:56:05.632Z,7.30
2023-04-28T06:59:44.392Z,6.70
2023-04-28T07:03:20.588Z,5.40
2023-04-28T07:07:17.052Z,7.00
2023-04-28T07:10:41.773Z,6.50
2023-04-28T07:14:38.073Z,7.10
2023-04-28T07:18:21.846Z,6.30
2023-04-28T07:21:46.388Z,6.40
2023-04-28T07:25:43.057Z,6.60
2023-04-28T07:29:28.430Z,5.50
2023-04-28T07:33:11.563Z,6.10
2023-04-28T07:36:55.536Z,5.60
2023-04-28T07:40:20.188Z,6.60
2023-04-28T08:00:45.169Z,4.00
2023-04-28T08:04:41.867Z,2.90
2023-04-28T08:08:06.764Z,3.50
2023-04-28T08:12:02.882Z,3.20
2023-04-28T08:15:48.997Z,2.70
2023-04-28T08:19:13.159Z,2.60
2023-04-28T08:23:10.223Z,3.40
2023-04-28T08:26:34.848Z,2.80
2023-04-28T08:30:13.295Z,2.60
2023-04-28T08:34:09.021Z,2.70
2023-04-28T08:37:52.945Z,3.50
2023-04-28T08:41:41.091Z,3.50
2023-04-28T08:45:26.751Z,3.20
2023-04-28T08:49:16.174Z,2.90
2023-04-28T08:53:03.712Z,3.70
2023-04-28T08:56:33.872Z,3.60
2023-04-28T09:00:06.758Z,2.90
2023-04-28T09:03:43.526Z,2.90
2023-04-28T09:07:21.079Z,3.30
2023-04-28T09:11:07.736Z,3.90
2023-04-28T09:14:38.309Z,3.60
2023-04-28T09:18:15.604Z,2.80
2023-04-28T09:21:54.128Z,2.80
2023-04-28T09:26:07.227Z,3.00
2023-04-28T09:29:32.328Z,3.20
2023-04-28T09:33:28.468Z,3.50
2023-04-28T09:36:52.935Z,2.20
2023-04-28T09:40:55.046Z,3.00
2023-04-28T09:44:38.568Z,2.80
2023-04-28T09:48:37.343Z,2.20
2023-04-28T09:52:21.421Z,3.30
2023-04-28T09:55:47.330Z,3.20
2023-04-28T09:59:23.739Z,2.90
2023-04-28T10:03:27.579Z,2.90
2023-04-28T10:07:15.793Z,2.90
2023-04-28T10:10:40.709Z,2.90
2023-04-28T10:14:37.431Z,3.30
2023-04-28T10:18:22.774Z,3.70
2023-04-28T10:22:28.499Z,2.80
2023-04-28T10:26:19.359Z,3.20
2023-04-28T10:30:27.367Z,3.30
2023-04-28T10:34:22.231Z,3.20
2023-04-28T10:38:08.903Z,2.40
2023-04-28T10:41:34.679Z,2.70
2023-04-28T10:45:12.819Z,2.90
2023-04-28T10:49:08.823Z,3.10
2023-04-28T10:52:33.364Z,2.90
2023-04-28T10:56:19.480Z,3.20
2023-04-28T11:00:32.434Z,3.60
2023-04-28T11:04:17.396Z,3.50
2023-04-28T11:08:29.731Z,3.50
2023-04-28T11:12:12.751Z,3.10
2023-04-28T11:16:03.564Z,3.00
2023-04-28T11:19:47.958Z,2.50
2023-04-28T11:23:12.590Z,3.20
2023-04-28T11:26:50.025Z,3.20
2023-04-28T11:30:29.049Z,2.80
2023-04-28T11:34:25.143Z,3.20
2023-04-28T11:38:04.158Z,2.90
2023-04-28T11:41:30.038Z,2.70
2023-04-28T11:45:26.701Z,2.80
2023-04-28T11:49:09.942Z,2.80
2023-04-28T11:52:54.118Z,3.30
2023-04-28T11:56:38.907Z,3.20
2023-04-28T12:00:21.905Z,3.70
2023-04-28T12:03:48.504Z,3.40
2023-04-28T12:07:25.704Z,4.10
2023-04-28T12:11:11.009Z,4.30
2023-04-28T12:14:59.540Z,3.50
2023-04-28T12:18:59.242Z,3.10
2023-04-28T12:22:46.073Z,3.60
2023-04-28T12:26:29.313Z,4.00
2023-04-28T12:29:54.374Z,3.90
2023-04-28T12:33:34.011Z,3.90
2023-04-28T12:37:10.087Z,3.90
2023-04-28T12:41:07.158Z,4.20
2023-04-28T12:44:50.574Z,4.50
2023-04-28T12:48:34.420Z,3.80
2023-04-28T12:52:01.740Z,3.60
2023-04-28T12:55:41.301Z,3.70
2023-04-28T12:59:16.833Z,3.10
2023-04-28T13:02:53.786Z,4.30
2023-04-28T13:06:31.134Z,3.70
2023-04-28T13:10:09.242Z,3.70
2023-04-28T13:13:47.084Z,2.80
2023-04-28T13:17:45.629Z,3.80
2023-04-28T13:21:28.697Z,3.30
2023-04-28T13:24:53.155Z,2.90
2023-04-28T13:28:51.454Z,3.50
2023-04-28T13:32:15.876Z,3.80
2023-04-28T13:35:53.541Z,3.50
2023-04-28T13:39:31.633Z,3.50
2023-04-28T13:43:27.891Z,3.70
2023-04-28T13:46:53.102Z,3.90
2023-04-28T13:50:30.647Z,3.60
2023-04-28T13:54:26.705Z,4.20
2023-04-28T13:58:10.177Z,3.60
2023-04-28T14:01:34.412Z,3.30
2023-04-28T14:05:12.718Z,3.80
2023-04-28T14:08:49.888Z,5.90
2023-04-28T14:12:46.798Z,5.30
2023-04-28T14:16:30.001Z,3.60
2023-04-28T14:19:54.675Z,4.60
2023-04-28T14:23:51.346Z,3.10
2023-04-28T14:27:35.221Z,3.20
2023-04-28T14:31:05.084Z,3.50
2023-04-28T14:34:56.888Z,4.70
2023-04-28T14:38:21.538Z,3.20
2023-04-28T14:42:19.450Z,2.60
2023-04-28T14:45:44.810Z,3.20
2023-04-28T14:49:40.708Z,3.00
2023-04-28T14:53:08.345Z,2.90
2023-04-28T14:57:02.463Z,5.50
2023-04-28T15:00:45.718Z,3.90
2023-04-28T15:04:30.284Z,4.20
2023-04-28T15:08:13.491Z,3.10
2023-04-28T15:11:57.242Z,2.70
2023-04-28T15:15:21.344Z,2.70
2023-04-28T15:19:17.999Z,2.80
2023-04-28T15:22:44.538Z,3.20
2023-04-28T15:26:38.905Z,3.50
2023-04-28T15:30:22.039Z,3.50
2023-04-28T15:33:46.452Z,2.70
2023-04-28T15:37:46.730Z,3.00
2023-04-28T15:41:12.278Z,6.00
2023-04-28T15:45:09.681Z,3.00
2023-04-28T15:48:54.523Z,2.90
2023-04-28T15:52:40.077Z,2.90
2023-04-28T15:56:04.752Z,2.40
2023-04-28T15:59:41.806Z,2.90
2023-04-28T16:03:39.363Z,2.50
2023-04-28T16:07:04.418Z,3.20
2023-04-28T16:11:01.806Z,3.50
2023-04-28T16:14:49.031Z,5.60
2023-04-28T16:18:32.670Z,3.90
2023-04-28T16:21:57.354Z,3.70
2023-04-28T16:25:56.132Z,2.50
2023-04-28T16:29:39.240Z,3.10
2023-04-28T16:33:04.552Z,2.50
2023-04-28T16:36:41.665Z,2.70
2023-04-28T16:40:38.624Z,2.50
2023-04-28T16:44:22.161Z,3.20
2023-04-28T16:48:06.053Z,3.20
2023-04-28T16:52:00.545Z,3.10
2023-04-28T16:55:25.481Z,2.40
2023-04-28T16:59:21.754Z,2.80
2023-04-28T17:03:05.394Z,2.20
2023-04-28T17:06:29.982Z,2.30
2023-04-28T17:10:08.342Z,2.20
2023-04-28T17:13:45.805Z,2.50
2023-04-28T17:17:23.022Z,4.40
2023-04-28T17:21:00.899Z,6.40
2023-04-28T17:24:38.322Z,6.10
2023-04-28T17:28:16.308Z,8.30
2023-04-28T17:31:54.319Z,6.30
2023-04-28T17:35:31.299Z,5.10
2023-04-28T17:39:27.937Z,5.70
2023-04-28T17:42:55.812Z,5.50
2023-04-28T17:46:49.101Z,4.00
2023-04-28T17:50:32.640Z,24.70
2023-04-28T17:54:16.214Z,7.60
2023-04-28T17:57:59.781Z,8.90
2023-04-28T18:01:46.312Z,7.00
2023-04-28T18:05:11.364Z,10.40
2023-04-28T18:08:49.485Z,7.40
2023-04-28T18:12:45.661Z,8.60
2023-04-28T18:16:30.030Z,9.60
2023-04-28T18:20:15.100Z,22.70
2023-04-28T18:23:43.060Z,21.30
2023-04-28T18:27:18.724Z,9.90
2023-04-28T18:30:55.106Z,41.50
2023-04-28T18:34:51.762Z,14.30
2023-04-28T18:38:15.997Z,7.50
2023-04-28T18:42:12.492Z,7.20
2023-04-28T18:45:57.573Z,9.70
2023-04-28T18:49:23.516Z,9.50
2023-04-28T18:53:05.455Z,8.70
2023-04-28T18:56:42.992Z,9.40
2023-04-28T19:00:35.179Z,11.80
2023-04-28T19:04:02.778Z,14.30
2023-04-28T19:07:39.655Z,13.10
2023-04-28T19:11:16.876Z,7.30
2023-04-28T19:14:55.584Z,6.80
2023-04-28T19:18:51.033Z,5.70
2023-04-28T19:22:36.610Z,7.00
2023-04-28T19:26:02.018Z,9.10
2023-04-28T19:29:39.999Z,7.00
2023-04-28T19:33:17.854Z,6.70
2023-04-28T19:36:55.898Z,8.20
2023-04-28T19:41:00.226Z,8.70
2023-04-28T19:44:24.537Z,8.60
2023-04-28T19:48:04.183Z,8.60
2023-04-28T19:51:40.042Z,11.00
2023-04-28T19:55:20.053Z,9.10
2023-04-28T19:58:55.257Z,7.80
2023-04-28T20:02:52.150Z,7.00
2023-04-28T20:06:19.548Z,6.70
2023-04-28T20:10:15.448Z,6.40
2023-04-28T20:13:42.566Z,10.30
2023-04-28T20:17:18.724Z,6.90
2023-04-28T20:20:56.148Z,6.00
2023-04-28T20:24:34.682Z,5.80
2023-04-28T20:28:30.299Z,5.10
2023-04-28T20:31:55.286Z,5.80
2023-04-28T20:35:51.481Z,6.80
2023-04-28T20:39:18.126Z,5.50
2023-04-28T20:43:14.595Z,6.90
2023-04-28T20:46:40.127Z,5.50
2023-04-28T20:50:17.270Z,5.50
2023-04-28T20:54:13.702Z,17.70
2023-04-28T20:57:57.118Z,6.60
2023-04-28T21:01:40.491Z,5.20
2023-04-28T21:05:05.187Z,6.30
2023-04-28T21:09:01.273Z,5.90
2023-04-28T21:12:46.134Z,5.80
2023-04-28T21:16:21.454Z,7.20
2023-04-28T21:19:49.878Z,5.60
2023-04-28T21:23:46.477Z,5.40
2023-04-28T21:27:11.005Z,5.40
2023-04-28T21:31:09.151Z,5.50
2023-04-28T21:34:54.768Z,4.90
2023-04-28T21:38:19.056Z,4.40
2023-04-28T21:42:17.344Z,4.40
2023-04-28T21:45:44.985Z,5.10
2023-04-28T21:49:24.664Z,3.40
2023-04-28T21:53:02.113Z,3.80
2023-04-28T21:56:54.723Z,3.50
2023-04-28T22:00:22.829Z,3.80
2023-04-28T22:03:59.124Z,3.90
2023-04-28T22:07:36.113Z,4.00
2023-04-28T22:11:32.698Z,4.50
2023-04-28T22:15:17.526Z,3.60
2023-04-28T22:19:01.624Z,4.00
2023-04-28T22:22:25.839Z,4.00
2023-04-28T22:26:04.727Z,4.20
2023-04-28T22:29:41.420Z,5.00
2023-04-28T22:33:41.152Z,4.00
2023-04-28T22:37:06.476Z,4.70
2023-04-28T22:40:46.802Z,5.60
2023-04-28T22:44:40.887Z,4.40
2023-04-28T22:48:05.961Z,4.80
2023-04-28T22:51:45.416Z,4.90
2023-04-28T22:55:21.013Z,4.70
2023-04-28T22:58:58.748Z,3.50
2023-04-28T23:02:55.659Z,4.20
2023-04-28T23:06:20.252Z,4.60
2023-04-28T23:10:18.225Z,3.50
2023-04-28T23:13:42.533Z,4.80
2023-04-28T23:17:39.127Z,4.00
2023-04-28T23:21:03.821Z,4.70
2023-04-28T23:24:42.491Z,4.30
2023-04-28T23:28:38.049Z,5.90
2023-04-28T23:32:04.873Z,5.40
2023-04-28T23:35:41.990Z,4.20
2023-04-28T23:39:19.405Z,4.80
2023-04-28T23:43:17.088Z,9.60
2023-04-28T23:47:00.543Z,7.00
2023-04-28T23:50:44.145Z,6.10
2023-04-28T23:54:10.559Z,6.20
2023-04-28T23:57:50.651Z,5.60
